McAlisterville, Pennsylvania
Current Conditions -  °F | °C
As of 6:53 AM on Thursday 29 Jan 2015 (Local Time) from KSEG Reporting Station
Clear Clear  
Wind Chill: -23°   Ceiling: Unl
Heat Index: -18°   Visibility: 8mi
Dew Point: -20°   Wind: 5mph
Humidity: 83%   Direction: 310°NW
Pressure: 30.31"   Gusts: NA
Location:  40.64°N, 77.27°W
Report Text: KSEG 291153Z AUTO 31004KT 8SM CLR M18/M20 A3031 RMK AO2 SLP276 I6000 T11781200 11150 21200 58006
Loading
Personal Weather Stations






























Interactive Weather Map New forecast layout! Learn more

10-Day Weather Forecast

Advertisements
Track Severe Weather on mobile